createdAt,value
2022-10-31T10:36:45.359Z,18.27
2022-10-31T10:39:57.007Z,15.07
2022-10-31T10:43:26.584Z,20.63
2022-10-31T10:47:01.649Z,27.73
2022-10-31T10:50:17.183Z,21.20
2022-10-31T10:54:00.612Z,30.33
2022-10-31T10:57:30.790Z,17.23
2022-10-31T11:00:42.020Z,24.00
2022-10-31T11:03:46.475Z,28.38
2022-10-31T11:07:00.516Z,39.75
2022-10-31T11:10:19.358Z,106.43
2022-10-31T11:13:27.730Z,170.68
2022-10-31T11:16:41.128Z,160.95
2022-10-31T11:19:46.818Z,110.70
2022-10-31T11:22:51.585Z,135.40
2022-10-31T11:26:01.076Z,130.07
2022-10-31T11:29:05.593Z,117.72
2022-10-31T11:32:23.536Z,93.43
2022-10-31T11:35:28.675Z,115.45
2022-10-31T11:38:42.055Z,105.05
2022-10-31T11:41:49.348Z,95.35
2022-10-31T11:44:56.950Z,84.25
2022-10-31T11:48:04.540Z,77.43
2022-10-31T11:51:09.701Z,76.22
2022-10-31T11:54:26.289Z,77.20
2022-10-31T11:57:35.286Z,69.70
2022-10-31T12:00:43.906Z,83.93
2022-10-31T12:04:07.675Z,88.90
2022-10-31T12:07:11.975Z,74.93
2022-10-31T12:10:17.204Z,65.65
2022-10-31T12:13:37.139Z,63.13
2022-10-31T12:16:57.640Z,57.35
2022-10-31T12:20:18.857Z,62.33
2022-10-31T12:23:41.204Z,62.25
2022-10-31T12:27:16.519Z,63.40
2022-10-31T12:30:29.632Z,74.85
2022-10-31T12:33:53.951Z,78.45
2022-10-31T12:37:13.124Z,57.38
2022-10-31T12:41:11.328Z,65.15
2022-10-31T12:44:41.882Z,52.90
2022-10-31T12:48:13.301Z,68.18
2022-10-31T12:51:34.186Z,55.42
2022-10-31T12:55:00.185Z,60.03
2022-10-31T12:58:13.393Z,56.33
2022-10-31T13:01:24.820Z,49.88
2022-10-31T13:04:46.061Z,70.10
2022-10-31T13:11:13.709Z,47.30
2022-10-31T13:14:29.199Z,45.15
2022-10-31T13:17:41.434Z,50.15
2022-10-31T13:20:54.728Z,49.83
2022-10-31T13:24:05.815Z,46.20
2022-10-31T13:27:23.123Z,45.03
2022-10-31T13:30:33.933Z,55.92
2022-10-31T13:33:47.169Z,42.30
2022-10-31T13:37:07.914Z,41.80
2022-10-31T13:40:33.704Z,55.58
2022-10-31T13:44:02.398Z,37.03
2022-10-31T13:47:24.336Z,41.38
2022-10-31T13:50:31.823Z,38.35
2022-10-31T13:53:58.764Z,28.13
2022-10-31T13:57:03.663Z,38.08
2022-10-31T14:00:26.247Z,39.13
2022-10-31T14:04:02.181Z,32.50
2022-10-31T14:07:08.094Z,36.83
2022-10-31T14:10:29.251Z,36.47
2022-10-31T14:13:44.044Z,34.60
2022-10-31T14:16:57.101Z,35.53
2022-10-31T14:20:43.239Z,32.10
2022-10-31T14:23:50.719Z,33.42
2022-10-31T14:27:02.488Z,30.92
2022-10-31T14:30:24.255Z,32.60
2022-10-31T14:33:33.009Z,30.25
2022-10-31T14:36:51.034Z,34.17
2022-10-31T14:40:17.830Z,45.72
2022-10-31T14:43:54.089Z,34.60
2022-10-31T14:47:11.883Z,30.50
2022-10-31T14:50:36.943Z,29.45
2022-10-31T14:53:52.005Z,27.77
2022-10-31T14:57:05.359Z,33.63
2022-10-31T15:00:21.369Z,28.23
2022-10-31T15:03:34.250Z,26.35
2022-10-31T15:06:46.599Z,29.85
2022-10-31T15:10:00.073Z,37.40
2022-10-31T15:13:23.880Z,30.15
2022-10-31T15:16:36.259Z,32.88
2022-10-31T15:19:41.411Z,25.00
2022-10-31T15:22:47.250Z,36.28
2022-10-31T15:25:51.556Z,83.88
2022-10-31T15:29:06.366Z,55.88
2022-10-31T15:32:24.098Z,57.45
2022-10-31T15:35:31.115Z,44.75
2022-10-31T15:38:35.775Z,45.00
2022-10-31T15:41:54.682Z,45.60
2022-10-31T15:45:04.978Z,38.30
2022-10-31T15:48:20.480Z,38.23
2022-10-31T15:51:35.095Z,43.53
2022-10-31T15:54:49.949Z,40.65
2022-10-31T15:57:59.234Z,36.95
2022-10-31T16:01:06.876Z,37.17
2022-10-31T16:04:26.523Z,23.58
2022-10-31T16:07:32.658Z,30.25
2022-10-31T16:10:37.541Z,36.47
2022-10-31T16:13:56.259Z,35.35
2022-10-31T16:17:03.692Z,36.28
2022-10-31T16:20:20.801Z,32.08
2022-10-31T16:23:28.723Z,24.73
2022-10-31T16:26:33.597Z,34.85
2022-10-31T16:29:48.807Z,21.63
2022-10-31T16:33:03.970Z,28.95
2022-10-31T16:36:39.691Z,24.35
2022-10-31T16:39:45.501Z,28.98
